Time;durP1;ratioP1;P1;durP2;ratioP2;P2;SDS_P1;SDS_P2;PMS_P1;PMS_P2;Temp;Humidity;BMP_temperature;BMP_pressure;BME280_temperature;BME280_humidity;BME280_pressure;Samples;Min_cycle;Max_cycle;Signal;HPM_P1;HPM_P2
2023/02/18 00:00:26;;;;;;;13.23;8.10;;;10.70;99.90;;;;;;5009251;28;20026;-66
2023/02/18 00:02:52;;;;;;;11.73;7.00;;;10.70;99.90;;;;;;5010818;28;20034;-66
2023/02/18 00:05:18;;;;;;;11.77;7.95;;;10.70;99.90;;;;;;5004720;28;20118;-66
2023/02/18 00:07:44;;;;;;;11.85;7.78;;;10.70;99.90;;;;;;5006329;28;20120;-65
2023/02/18 00:10:14;;;;;;;13.70;7.70;;;10.70;99.90;;;;;;5005439;28;20408;-66
2023/02/18 00:12:41;;;;;;;13.57;8.63;;;10.70;99.90;;;;;;5008106;28;20509;-66
2023/02/18 00:15:08;;;;;;;13.00;8.52;;;10.70;99.90;;;;;;5008605;28;20048;-65
2023/02/18 00:17:34;;;;;;;13.70;9.13;;;10.70;99.90;;;;;;5006424;28;20084;-66
2023/02/18 00:19:59;;;;;;;15.60;9.98;;;10.60;99.90;;;;;;5009805;28;20022;-65
2023/02/18 00:22:25;;;;;;;14.45;9.52;;;10.60;99.90;;;;;;5004569;28;20108;-65
2023/02/18 00:24:51;;;;;;;12.60;8.10;;;10.60;99.90;;;;;;5002501;28;20044;-66
2023/02/18 00:27:16;;;;;;;18.77;8.95;;;10.60;99.90;;;;;;4989758;28;20022;-66
2023/02/18 00:29:42;;;;;;;12.13;8.38;;;10.60;99.90;;;;;;4985300;28;20076;-66
2023/02/18 00:32:08;;;;;;;14.43;8.15;;;10.60;99.90;;;;;;5019645;28;20522;-66
2023/02/18 00:34:33;;;;;;;13.90;7.88;;;10.60;99.90;;;;;;5004909;28;20029;-65
2023/02/18 00:36:59;;;;;;;17.00;7.32;;;10.60;99.90;;;;;;5004606;28;20048;-65
2023/02/18 00:39:25;;;;;;;11.82;8.18;;;10.60;99.90;;;;;;4998823;28;20108;-66
2023/02/18 00:41:50;;;;;;;15.77;8.82;;;10.60;99.90;;;;;;5009033;28;20058;-67
2023/02/18 00:44:16;;;;;;;13.27;8.93;;;10.60;99.90;;;;;;5005523;28;20501;-66
2023/02/18 00:46:41;;;;;;;13.43;8.05;;;10.60;99.90;;;;;;5007745;28;20018;-66
2023/02/18 00:49:07;;;;;;;12.63;8.18;;;10.60;99.90;;;;;;5015507;28;20033;-66
2023/02/18 00:51:33;;;;;;;14.50;8.10;;;10.60;99.90;;;;;;5008515;28;20030;-66
2023/02/18 00:53:59;;;;;;;13.73;8.35;;;10.60;99.90;;;;;;5003756;28;20041;-66
2023/02/18 00:56:25;;;;;;;12.18;8.07;;;10.60;99.90;;;;;;5007549;28;20022;-66
2023/02/18 00:58:51;;;;;;;12.23;8.90;;;10.60;99.90;;;;;;5012783;28;20040;-66
2023/02/18 01:01:16;;;;;;;12.45;8.20;;;10.60;99.90;;;;;;5010364;28;20026;-66
2023/02/18 01:03:43;;;;;;;13.00;8.75;;;10.60;99.90;;;;;;5020023;28;20125;-66
2023/02/18 01:06:10;;;;;;;12.15;8.43;;;10.50;99.90;;;;;;5000800;28;20092;-66
2023/02/18 01:08:36;;;;;;;13.02;8.38;;;10.60;99.90;;;;;;5006332;28;20029;-65
2023/02/18 01:11:03;;;;;;;12.38;8.00;;;10.60;99.90;;;;;;5000318;28;20104;-66
2023/02/18 01:13:29;;;;;;;11.25;7.70;;;10.60;99.90;;;;;;5015885;28;20033;-65
2023/02/18 01:15:55;;;;;;;12.35;7.88;;;10.50;99.90;;;;;;5005389;28;20045;-67
2023/02/18 01:18:21;;;;;;;11.77;7.65;;;10.50;99.90;;;;;;5007252;28;20433;-66
2023/02/18 01:20:47;;;;;;;13.35;7.50;;;10.50;99.90;;;;;;5007628;28;20103;-66
2023/02/18 01:23:13;;;;;;;10.15;6.75;;;10.50;99.90;;;;;;5009332;28;20513;-66
2023/02/18 01:25:39;;;;;;;10.48;6.63;;;10.60;99.90;;;;;;5011174;28;20029;-66
2023/02/18 01:28:07;;;;;;;10.77;6.43;;;10.60;99.90;;;;;;5021215;28;20034;-65
2023/02/18 01:30:33;;;;;;;11.80;6.25;;;10.60;99.90;;;;;;4991745;28;20041;-66
2023/02/18 01:32:59;;;;;;;9.77;6.10;;;10.60;99.90;;;;;;5020904;28;20060;-65
2023/02/18 01:35:25;;;;;;;12.25;6.28;;;10.60;99.90;;;;;;5014058;28;20081;-66
2023/02/18 01:37:51;;;;;;;10.60;6.75;;;10.60;99.90;;;;;;5009057;28;20041;-65
2023/02/18 01:40:21;;;;;;;10.73;6.95;;;10.60;99.90;;;;;;5016588;28;20038;-66
2023/02/18 01:42:47;;;;;;;9.43;5.90;;;10.60;99.90;;;;;;5016698;28;20032;-66
2023/02/18 01:45:32;;;;;;;8.73;5.38;;;10.50;99.90;;;;;;5013996;28;20054;-65
2023/02/18 01:48:03;;;;;;;8.18;6.22;;;10.60;99.90;;;;;;4990237;28;20038;-66
2023/02/18 01:50:29;;;;;;;8.20;5.25;;;10.50;99.90;;;;;;5007231;28;20022;-65
2023/02/18 01:52:54;;;;;;;6.88;4.60;;;10.60;99.90;;;;;;5011118;28;20076;-66
2023/02/18 01:55:20;;;;;;;10.25;5.40;;;10.50;99.90;;;;;;5010207;28;20053;-66
2023/02/18 01:57:46;;;;;;;9.07;5.20;;;10.50;99.90;;;;;;5005096;28;20527;-65
2023/02/18 02:00:15;;;;;;;10.25;5.22;;;10.50;99.90;;;;;;5005536;28;20022;-66
2023/02/18 02:02:44;;;;;;;8.75;4.30;;;10.50;99.90;;;;;;5006458;28;20026;-66
2023/02/18 02:05:11;;;;;;;10.82;4.53;;;10.50;99.90;;;;;;5004801;28;20026;-66
2023/02/18 02:07:37;;;;;;;6.80;4.40;;;10.50;99.90;;;;;;5004291;28;20025;-65
2023/02/18 02:10:04;;;;;;;8.00;4.75;;;10.50;99.90;;;;;;5004406;28;20510;-66
2023/02/18 02:12:41;;;;;;;7.32;4.50;;;10.50;99.90;;;;;;5007141;28;20018;-66
2023/02/18 02:15:20;;;;;;;10.70;4.38;;;10.50;99.90;;;;;;5001754;28;20124;-65
2023/02/18 02:17:52;;;;;;;7.57;4.28;;;10.60;99.90;;;;;;5003929;28;20443;-65
2023/02/18 02:20:23;;;;;;;7.45;4.72;;;10.50;99.90;;;;;;5009369;28;20080;-66
2023/02/18 02:23:16;;;;;;;7.05;4.95;;;10.50;99.90;;;;;;5005346;28;20109;-65
2023/02/18 02:25:50;;;;;;;8.25;3.50;;;10.50;99.90;;;;;;5003123;28;20018;-65
2023/02/18 02:28:49;;;;;;;8.07;5.05;;;10.50;99.90;;;;;;5010209;28;20030;-66
2023/02/18 02:31:42;;;;;;;8.70;5.07;;;10.50;99.90;;;;;;4988699;28;20049;-66
2023/02/18 02:34:29;;;;;;;8.23;4.65;;;10.50;99.90;;;;;;4994175;28;20022;-66
2023/02/18 02:37:33;;;;;;;14.80;5.38;;;10.50;99.90;;;;;;4990958;28;20103;-66
2023/02/18 02:40:29;;;;;;;8.98;5.20;;;10.50;99.90;;;;;;4983449;28;20586;-65
2023/02/18 02:43:23;;;;;;;10.57;5.50;;;10.40;99.90;;;;;;5011428;28;20040;-65
2023/02/18 02:45:57;;;;;;;9.48;5.00;;;10.50;99.90;;;;;;5014022;28;20112;-65
2023/02/18 02:48:35;;;;;;;9.13;5.15;;;10.40;99.90;;;;;;5008595;28;20112;-66
2023/02/18 02:51:04;;;;;;;9.75;5.90;;;10.40;99.90;;;;;;5016384;28;20025;-65
2023/02/18 02:53:32;;;;;;;7.25;4.78;;;10.40;99.90;;;;;;5012577;28;20049;-66
2023/02/18 02:55:58;;;;;;;8.25;5.22;;;10.40;99.90;;;;;;5018363;28;20065;-66
2023/02/18 02:58:24;;;;;;;9.05;5.20;;;10.40;99.90;;;;;;5016725;28;20100;-65
2023/02/18 03:01:08;;;;;;;12.18;5.30;;;10.40;99.90;;;;;;5016968;28;20030;-66
2023/02/18 03:04:06;;;;;;;7.15;5.13;;;10.40;99.90;;;;;;5009839;28;20611;-66
2023/02/18 03:06:59;;;;;;;8.52;5.20;;;10.40;99.90;;;;;;4980610;28;20069;-66
2023/02/18 03:09:46;;;;;;;7.53;5.03;;;10.40;99.90;;;;;;5005386;28;20577;-65
2023/02/18 03:12:32;;;;;;;7.85;5.60;;;10.40;99.90;;;;;;5005783;28;20033;-65
2023/02/18 03:15:09;;;;;;;8.93;4.88;;;10.40;99.90;;;;;;5006375;28;20093;-67
2023/02/18 03:17:47;;;;;;;6.80;4.53;;;10.40;99.90;;;;;;5002133;28;20030;-68
2023/02/18 03:20:27;;;;;;;6.07;4.18;;;10.30;99.90;;;;;;5004872;28;20033;-67
2023/02/18 03:22:54;;;;;;;7.32;3.75;;;10.30;99.90;;;;;;5008741;28;20028;-67
2023/02/18 03:25:22;;;;;;;6.93;4.03;;;10.30;99.90;;;;;;5009409;28;20014;-65
2023/02/18 03:28:01;;;;;;;6.25;3.90;;;10.30;99.90;;;;;;5011979;28;20528;-67
2023/02/18 03:30:33;;;;;;;8.07;4.05;;;10.30;99.90;;;;;;4988461;28;20386;-65
2023/02/18 03:33:05;;;;;;;6.50;3.80;;;10.30;99.90;;;;;;5006296;28;20154;-68
2023/02/18 03:35:30;;;;;;;5.80;3.80;;;10.30;99.90;;;;;;5009090;28;20485;-67
2023/02/18 03:38:28;;;;;;;5.75;3.72;;;10.30;99.90;;;;;;5008361;28;20034;-68
2023/02/18 03:40:55;;;;;;;5.65;3.38;;;10.30;99.90;;;;;;4982911;28;20030;-68
2023/02/18 03:43:20;;;;;;;5.00;2.83;;;10.30;99.90;;;;;;5009784;28;20021;-65
2023/02/18 03:45:46;;;;;;;5.68;3.15;;;10.30;99.90;;;;;;5020325;28;20095;-67
2023/02/18 03:48:12;;;;;;;4.10;2.70;;;10.30;99.90;;;;;;5018428;28;20480;-65
2023/02/18 03:50:37;;;;;;;3.50;2.70;;;10.20;99.90;;;;;;5020321;28;20049;-65
2023/02/18 03:53:03;;;;;;;4.45;2.78;;;10.20;99.90;;;;;;5015914;28;20134;-65
2023/02/18 03:55:28;;;;;;;4.43;2.67;;;10.20;99.90;;;;;;5008201;28;20038;-68
2023/02/18 03:57:54;;;;;;;6.50;2.40;;;10.20;99.90;;;;;;5011628;28;20393;-68
2023/02/18 04:00:20;;;;;;;6.38;2.70;;;10.10;99.90;;;;;;5006634;28;20022;-68
2023/02/18 04:02:45;;;;;;;3.10;2.30;;;10.20;99.90;;;;;;5009137;28;20597;-65
2023/02/18 04:05:11;;;;;;;7.90;2.00;;;10.10;99.90;;;;;;5008950;28;20029;-65
2023/02/18 04:07:37;;;;;;;3.15;1.92;;;10.10;99.90;;;;;;5007804;28;20028;-68
2023/02/18 04:10:04;;;;;;;5.35;2.78;;;10.10;99.90;;;;;;5008022;28;20042;-65
2023/02/18 04:12:29;;;;;;;3.55;2.30;;;10.10;99.90;;;;;;5006871;28;20089;-68
2023/02/18 04:14:55;;;;;;;2.67;1.90;;;10.10;99.90;;;;;;5008718;28;20026;-65
2023/02/18 04:17:20;;;;;;;1.92;1.60;;;10.10;99.90;;;;;;5002326;28;20426;-65
2023/02/18 04:19:46;;;;;;;3.05;1.98;;;10.00;99.90;;;;;;5003732;28;20033;-68
2023/02/18 04:22:11;;;;;;;4.13;1.90;;;10.00;99.90;;;;;;5003842;28;20021;-67
2023/02/18 04:24:37;;;;;;;2.40;1.70;;;10.00;99.90;;;;;;4999552;28;20030;-67
2023/02/18 04:27:03;;;;;;;2.90;1.45;;;10.00;99.90;;;;;;5001802;28;20014;-65
2023/02/18 04:29:28;;;;;;;2.92;1.80;;;10.00;99.90;;;;;;5004125;28;20041;-67
2023/02/18 04:31:54;;;;;;;2.05;1.40;;;9.90;99.90;;;;;;4978805;28;20211;-67
2023/02/18 04:34:19;;;;;;;3.05;1.85;;;9.90;99.90;;;;;;5002222;28;20030;-66
2023/02/18 04:36:45;;;;;;;2.85;1.70;;;9.90;99.90;;;;;;5020152;28;20033;-67
2023/02/18 04:39:11;;;;;;;2.88;1.67;;;9.90;99.90;;;;;;5011072;28;20038;-67
2023/02/18 04:41:36;;;;;;;3.05;1.77;;;9.90;99.90;;;;;;5009921;28;20037;-67
2023/02/18 04:44:02;;;;;;;2.58;1.70;;;9.90;99.90;;;;;;5010359;28;20152;-66
2023/02/18 04:46:28;;;;;;;2.35;1.80;;;9.90;99.90;;;;;;5010933;28;20030;-66
2023/02/18 04:48:53;;;;;;;2.47;1.85;;;9.80;99.90;;;;;;5011664;28;20520;-67
2023/02/18 04:51:19;;;;;;;1.63;1.13;;;9.80;99.90;;;;;;5010751;28;20041;-67
2023/02/18 04:53:45;;;;;;;1.52;1.00;;;9.90;99.90;;;;;;5005330;28;20041;-67
2023/02/18 04:56:10;;;;;;;1.55;1.05;;;9.90;99.90;;;;;;5009092;28;20037;-67
2023/02/18 04:58:36;;;;;;;2.90;0.63;;;9.90;99.90;;;;;;5007721;28;20045;-67
2023/02/18 05:01:03;;;;;;;0.77;0.50;;;9.90;99.90;;;;;;5003195;28;20026;-67
2023/02/18 05:03:30;;;;;;;0.60;0.60;;;9.90;99.90;;;;;;5007839;28;20018;-67
2023/02/18 05:05:55;;;;;;;1.35;0.50;;;10.00;99.90;;;;;;5005929;28;20501;-67
2023/02/18 05:08:21;;;;;;;0.30;0.30;;;10.00;99.90;;;;;;5002043;28;20087;-66
2023/02/18 05:10:46;;;;;;;0.40;0.40;;;10.00;99.90;;;;;;5009021;28;20111;-67
2023/02/18 05:13:12;;;;;;;0.30;0.30;;;10.00;99.90;;;;;;5006234;28;20026;-66
2023/02/18 05:15:38;;;;;;;0.60;0.50;;;10.00;99.90;;;;;;5006337;28;20033;-67
2023/02/18 05:18:03;;;;;;;0.10;0.10;;;10.00;99.90;;;;;;5004283;28;20021;-67
2023/02/18 05:20:29;;;;;;;0.30;0.30;;;9.90;99.90;;;;;;5005853;28;20036;-67
2023/02/18 05:22:55;;;;;;;0.90;0.40;;;9.90;99.90;;;;;;5007600;28;21694;-67
2023/02/18 05:25:20;;;;;;;0.40;0.40;;;9.90;99.90;;;;;;5006839;28;20112;-66
2023/02/18 05:27:46;;;;;;;0.20;0.20;;;9.90;99.90;;;;;;5006947;28;20026;-67
2023/02/18 05:30:12;;;;;;;0.30;0.30;;;9.90;99.90;;;;;;5010018;28;20101;-68
2023/02/18 05:32:38;;;;;;;2.03;0.30;;;9.90;99.90;;;;;;4986202;28;20509;-66
2023/02/18 05:35:03;;;;;;;0.80;0.30;;;9.80;99.90;;;;;;5007003;28;20034;-67
2023/02/18 05:37:29;;;;;;;0.47;0.47;;;9.80;99.90;;;;;;5002174;28;20041;-67
2023/02/18 05:39:55;;;;;;;5.05;0.40;;;9.80;99.90;;;;;;5003857;28;20037;-66
2023/02/18 05:42:22;;;;;;;0.98;0.40;;;9.80;99.90;;;;;;5026760;28;20026;-66
2023/02/18 05:44:47;;;;;;;0.28;0.28;;;9.80;99.90;;;;;;5011455;28;20477;-65
2023/02/18 05:47:14;;;;;;;1.80;0.30;;;9.80;99.90;;;;;;5009540;28;20053;-67
2023/02/18 05:49:41;;;;;;;0.10;0.10;;;9.80;99.90;;;;;;5009618;28;20030;-66
2023/02/18 05:52:07;;;;;;;3.53;0.40;;;9.80;99.90;;;;;;5008208;28;20117;-67
2023/02/18 05:54:33;;;;;;;0.20;0.20;;;9.80;99.90;;;;;;5013705;28;20038;-67
2023/02/18 05:56:58;;;;;;;0.10;0.10;;;9.80;99.90;;;;;;5009135;28;20451;-66
2023/02/18 05:59:24;;;;;;;0.35;0.20;;;9.80;99.90;;;;;;5006524;28;20572;-66
2023/02/18 06:01:49;;;;;;;0.40;0.30;;;9.70;99.90;;;;;;5006605;28;20030;-67
2023/02/18 06:04:15;;;;;;;2.35;0.30;;;9.80;99.90;;;;;;5008122;28;20022;-67
2023/02/18 06:06:41;;;;;;;0.38;0.38;;;9.70;99.90;;;;;;5013744;28;20092;-67
2023/02/18 06:09:07;;;;;;;0.75;0.20;;;9.70;99.90;;;;;;5010574;28;20021;-66
2023/02/18 06:11:33;;;;;;;0.30;0.30;;;9.70;99.90;;;;;;5010004;28;20034;-66
2023/02/18 06:13:59;;;;;;;0.68;0.30;;;9.70;99.90;;;;;;5009481;28;20448;-67
2023/02/18 06:16:25;;;;;;;0.30;0.30;;;9.70;99.90;;;;;;5011815;28;20060;-67
2023/02/18 06:18:50;;;;;;;0.28;0.28;;;9.70;99.90;;;;;;5011375;28;21389;-68
2023/02/18 06:21:16;;;;;;;0.45;0.30;;;9.70;99.90;;;;;;5009412;28;20615;-67
2023/02/18 06:23:41;;;;;;;1.85;0.50;;;9.70;99.90;;;;;;5006479;28;20037;-66
2023/02/18 06:26:07;;;;;;;0.30;0.30;;;9.70;99.90;;;;;;5009275;28;20527;-66
2023/02/18 06:28:33;;;;;;;0.20;0.20;;;9.70;99.90;;;;;;5011785;28;20037;-67
2023/02/18 06:30:58;;;;;;;0.25;0.25;;;9.70;99.90;;;;;;5010833;28;20417;-67
2023/02/18 06:33:24;;;;;;;0.85;0.40;;;9.70;99.90;;;;;;4983898;28;20660;-67
2023/02/18 06:36:07;;;;;;;2.17;0.50;;;9.70;99.90;;;;;;5012156;28;20160;-67
2023/02/18 06:38:34;;;;;;;3.90;1.02;;;9.70;99.90;;;;;;5009570;28;20065;-66
2023/02/18 06:41:00;;;;;;;2.60;1.23;;;9.70;99.90;;;;;;5009190;28;20034;-67
2023/02/18 06:43:26;;;;;;;1.33;0.60;;;9.70;99.90;;;;;;5007973;28;20500;-66
2023/02/18 06:45:52;;;;;;;1.52;0.60;;;9.70;99.90;;;;;;5008772;28;20029;-67
2023/02/18 06:48:18;;;;;;;0.60;0.57;;;9.70;99.90;;;;;;5010064;28;20418;-66
2023/02/18 06:50:44;;;;;;;1.25;0.50;;;9.70;99.90;;;;;;5009997;28;20048;-67
2023/02/18 06:53:10;;;;;;;0.40;0.40;;;9.70;99.90;;;;;;5009705;28;20036;-67
2023/02/18 06:55:36;;;;;;;1.05;0.50;;;9.70;99.90;;;;;;5009609;28;20026;-66
2023/02/18 06:58:01;;;;;;;0.43;0.43;;;9.70;99.90;;;;;;5009157;28;20049;-67
2023/02/18 07:00:27;;;;;;;1.23;0.52;;;9.80;99.90;;;;;;5008385;28;20018;-66
2023/02/18 07:02:52;;;;;;;1.90;1.38;;;9.80;99.90;;;;;;5011041;28;20037;-67
2023/02/18 07:05:18;;;;;;;2.75;1.83;;;9.80;99.90;;;;;;5009091;28;20018;-67
2023/02/18 07:07:44;;;;;;;1.20;1.10;;;9.80;99.90;;;;;;5010515;28;20057;-67
2023/02/18 07:10:09;;;;;;;3.47;1.88;;;9.90;99.90;;;;;;5009854;28;20030;-67
2023/02/18 07:12:35;;;;;;;1.52;1.25;;;9.90;99.90;;;;;;5008693;28;20060;-66
2023/02/18 07:15:01;;;;;;;1.27;0.90;;;9.90;99.90;;;;;;5005292;28;20092;-67
2023/02/18 07:17:27;;;;;;;0.90;0.90;;;9.90;99.90;;;;;;5005299;28;20022;-67
2023/02/18 07:19:54;;;;;;;1.30;0.95;;;9.90;99.90;;;;;;5007846;28;20408;-66
2023/02/18 07:22:20;;;;;;;0.98;0.88;;;9.90;99.90;;;;;;5020746;28;20025;-67
2023/02/18 07:24:49;;;;;;;0.70;0.70;;;9.90;99.90;;;;;;5011235;28;20044;-67
2023/02/18 07:27:14;;;;;;;23.73;11.10;;;10.00;99.90;;;;;;5010236;28;20033;-67
2023/02/18 07:29:40;;;;;;;18.67;12.05;;;9.90;99.90;;;;;;5010092;28;20060;-67
2023/02/18 07:32:05;;;;;;;35.25;24.88;;;10.00;99.90;;;;;;4985999;28;20069;-66
2023/02/18 07:34:31;;;;;;;4.38;3.60;;;10.00;99.90;;;;;;5011233;28;21471;-66
2023/02/18 07:36:57;;;;;;;1.95;1.13;;;10.00;99.90;;;;;;5012492;28;20034;-67
2023/02/18 07:39:22;;;;;;;1.40;0.60;;;10.00;99.90;;;;;;5011979;28;20504;-67
2023/02/18 07:41:48;;;;;;;0.57;0.47;;;10.10;99.90;;;;;;5007077;28;20026;-66
2023/02/18 07:44:14;;;;;;;0.50;0.50;;;10.10;99.90;;;;;;4998234;28;20076;-66
2023/02/18 07:46:40;;;;;;;1.35;0.50;;;10.20;99.90;;;;;;5006920;28;20164;-66
2023/02/18 07:49:07;;;;;;;1.08;0.70;;;10.30;99.90;;;;;;5012707;28;20034;-67
2023/02/18 07:51:32;;;;;;;0.50;0.50;;;10.40;99.90;;;;;;5006546;28;20101;-67
2023/02/18 07:53:58;;;;;;;1.17;0.60;;;10.40;99.90;;;;;;5004436;28;20164;-67
2023/02/18 07:56:23;;;;;;;0.50;0.50;;;10.50;99.90;;;;;;5009126;28;20038;-67
2023/02/18 07:58:49;;;;;;;0.40;0.40;;;10.60;99.90;;;;;;5007508;28;20045;-66
2023/02/18 08:01:15;;;;;;;0.30;0.30;;;10.60;99.90;;;;;;5007449;28;20033;-67
2023/02/18 08:03:41;;;;;;;0.57;0.47;;;10.70;99.90;;;;;;5009203;28;20520;-67
2023/02/18 08:06:07;;;;;;;0.50;0.50;;;10.70;99.90;;;;;;4991007;28;20049;-67
2023/02/18 08:08:34;;;;;;;0.40;0.40;;;10.60;99.90;;;;;;5009409;28;20049;-67
2023/02/18 08:11:01;;;;;;;1.05;0.80;;;10.60;99.90;;;;;;5003517;28;20057;-67
2023/02/18 08:13:28;;;;;;;0.40;0.40;;;10.50;99.90;;;;;;5008955;28;20018;-66
2023/02/18 08:15:55;;;;;;;0.50;0.50;;;10.50;99.90;;;;;;5013474;28;20108;-66
2023/02/18 08:18:23;;;;;;;0.50;0.50;;;10.50;99.90;;;;;;5013854;28;20477;-67
2023/02/18 08:20:50;;;;;;;0.40;0.40;;;10.60;99.90;;;;;;5001371;28;20468;-67
2023/02/18 08:23:19;;;;;;;1.52;0.50;;;10.60;99.90;;;;;;5003234;28;20342;-66
2023/02/18 08:25:49;;;;;;;2.00;1.55;;;10.50;99.90;;;;;;5004448;28;20112;-67
2023/02/18 08:28:16;;;;;;;2.05;1.33;;;10.40;99.90;;;;;;5010623;28;20034;-67
2023/02/18 08:30:46;;;;;;;1.58;1.15;;;10.20;99.90;;;;;;5004218;28;20029;-67
2023/02/18 08:33:12;;;;;;;1.45;1.33;;;10.10;99.90;;;;;;4982987;28;20068;-67
2023/02/18 08:35:37;;;;;;;2.53;0.73;;;10.00;99.90;;;;;;5008227;28;20387;-66
2023/02/18 08:38:03;;;;;;;3.35;1.02;;;9.90;99.90;;;;;;4991791;28;20041;-67
2023/02/18 08:40:29;;;;;;;4.22;1.00;;;9.80;99.90;;;;;;5003725;28;20029;-67
2023/02/18 08:42:54;;;;;;;5.47;2.13;;;9.80;99.90;;;;;;5008217;28;20485;-67
2023/02/18 08:45:20;;;;;;;4.20;1.52;;;9.70;99.90;;;;;;5008584;28;20026;-66
2023/02/18 08:47:46;;;;;;;4.00;1.38;;;9.80;99.90;;;;;;5017365;28;20445;-67
2023/02/18 08:50:11;;;;;;;5.97;1.83;;;9.70;99.90;;;;;;5007625;28;20022;-67
2023/02/18 08:52:38;;;;;;;6.07;1.55;;;9.80;99.90;;;;;;5004349;28;20068;-67
2023/02/18 08:55:05;;;;;;;6.10;1.13;;;9.70;99.90;;;;;;5006422;28;20034;-67
2023/02/18 08:57:30;;;;;;;8.63;1.95;;;9.70;99.90;;;;;;5007717;28;20029;-67
2023/02/18 08:59:56;;;;;;;8.07;3.08;;;9.80;99.90;;;;;;5004690;28;20573;-67
2023/02/18 09:02:22;;;;;;;8.38;1.98;;;9.80;99.90;;;;;;5005213;28;21830;-67
2023/02/18 09:04:48;;;;;;;10.98;3.95;;;9.80;99.90;;;;;;5006482;28;20033;-67
2023/02/18 09:07:13;;;;;;;10.18;2.10;;;9.70;99.90;;;;;;5003062;28;20026;-67
2023/02/18 09:09:39;;;;;;;7.20;1.80;;;9.80;99.90;;;;;;5004379;28;20034;-67
2023/02/18 09:12:05;;;;;;;7.57;2.55;;;9.90;99.90;;;;;;4997753;28;20021;-66
2023/02/18 09:14:31;;;;;;;4.55;2.05;;;9.90;99.90;;;;;;5006492;28;20040;-67
2023/02/18 09:16:57;;;;;;;7.15;2.03;;;9.80;99.90;;;;;;5000297;28;20045;-67
2023/02/18 09:19:23;;;;;;;6.95;2.15;;;9.80;99.90;;;;;;5006847;28;20083;-67
2023/02/18 09:21:49;;;;;;;9.70;2.33;;;9.80;99.90;;;;;;5006556;28;20089;-66
2023/02/18 09:24:14;;;;;;;5.60;1.90;;;9.70;99.90;;;;;;5009166;28;20497;-67
2023/02/18 09:26:40;;;;;;;7.38;2.05;;;9.70;99.90;;;;;;5012060;28;20489;-66
2023/02/18 09:29:05;;;;;;;3.22;1.67;;;9.70;99.90;;;;;;5010654;28;20126;-67
2023/02/18 09:31:31;;;;;;;7.03;2.10;;;9.70;99.90;;;;;;5008901;28;20098;-67
2023/02/18 09:33:59;;;;;;;3.28;2.00;;;9.70;99.90;;;;;;4984004;28;20049;-67
2023/02/18 09:36:26;;;;;;;6.22;1.60;;;9.70;99.90;;;;;;5007161;28;20034;-67
2023/02/18 09:38:52;;;;;;;4.38;1.73;;;9.60;99.90;;;;;;4988750;28;20031;-67
2023/02/18 09:41:46;;;;;;;4.75;2.25;;;9.60;99.90;;;;;;5013067;28;20599;-67
2023/02/18 09:44:15;;;;;;;8.13;3.00;;;9.70;99.90;;;;;;5006106;28;20037;-67
2023/02/18 09:46:50;;;;;;;7.40;3.10;;;9.70;99.90;;;;;;5016804;28;20022;-67
2023/02/18 09:49:27;;;;;;;7.22;2.75;;;9.80;99.90;;;;;;5030388;28;20037;-66
2023/02/18 09:51:59;;;;;;;10.15;3.08;;;9.80;99.90;;;;;;5007399;28;20044;-67
2023/02/18 09:54:26;;;;;;;10.38;2.47;;;9.90;99.90;;;;;;5009580;28;20081;-67
2023/02/18 09:56:52;;;;;;;10.25;2.28;;;10.00;99.90;;;;;;5009154;28;20033;-66
2023/02/18 09:59:21;;;;;;;11.18;2.00;;;10.00;99.90;;;;;;5011174;28;20381;-68
2023/02/18 10:01:50;;;;;;;11.70;4.50;;;10.00;99.90;;;;;;5004680;28;20025;-67
2023/02/18 10:04:34;;;;;;;11.57;4.78;;;10.00;99.90;;;;;;5009864;28;20021;-66
2023/02/18 10:07:02;;;;;;;45.35;15.60;;;10.00;99.90;;;;;;5006626;28;20048;-66
2023/02/18 10:09:34;;;;;;;29.08;10.48;;;10.00;99.90;;;;;;5014633;28;20038;-66
2023/02/18 10:12:15;;;;;;;39.08;14.93;;;9.90;99.90;;;;;;5006097;28;20065;-66
2023/02/18 10:14:46;;;;;;;71.60;29.60;;;9.90;99.90;;;;;;5010970;28;20026;-66
2023/02/18 10:17:15;;;;;;;17.02;7.50;;;10.00;99.90;;;;;;5006051;28;20448;-68
2023/02/18 10:19:43;;;;;;;40.10;15.82;;;10.00;99.90;;;;;;5009747;28;20026;-67
2023/02/18 10:22:12;;;;;;;45.53;19.23;;;10.00;99.90;;;;;;5003505;28;20038;-66
2023/02/18 10:24:45;;;;;;;13.70;7.03;;;10.00;99.90;;;;;;5008187;28;20076;-66
2023/02/18 10:27:23;;;;;;;219.43;69.30;;;10.10;99.90;;;;;;5005134;28;20029;-66
2023/02/18 10:29:48;;;;;;;182.73;58.65;;;10.10;99.90;;;;;;4984096;28;20088;-67
2023/02/18 10:32:35;;;;;;;42.30;15.10;;;10.10;99.90;;;;;;5011738;28;20030;-67
2023/02/18 10:35:54;;;;;;;25.67;10.07;;;10.10;99.90;;;;;;4983242;28;20054;-67
2023/02/18 10:39:08;;;;;;;13.00;4.97;;;10.10;99.90;;;;;;4947141;28;20054;-67
2023/02/18 10:41:58;;;;;;;81.85;33.50;;;10.20;99.90;;;;;;4936782;28;20384;-66
2023/02/18 10:44:44;;;;;;;16.77;4.72;;;10.20;99.90;;;;;;5006773;28;20061;-67
2023/02/18 10:47:37;;;;;;;6.15;3.65;;;10.10;99.90;;;;;;5009710;28;20029;-66
2023/02/18 10:50:10;;;;;;;6.93;2.50;;;10.10;99.90;;;;;;4975848;28;20076;-66
2023/02/18 10:52:46;;;;;;;7.50;2.93;;;10.00;99.90;;;;;;5008058;28;20021;-66
2023/02/18 10:55:17;;;;;;;9.40;2.40;;;9.90;99.90;;;;;;5007395;28;20476;-67
2023/02/18 10:57:49;;;;;;;4.18;2.30;;;9.90;99.90;;;;;;5002272;28;20029;-66
2023/02/18 11:00:26;;;;;;;4.55;2.33;;;9.80;99.90;;;;;;5009031;28;20033;-66
2023/02/18 11:03:13;;;;;;;11.10;3.35;;;9.70;99.90;;;;;;5005480;28;20024;-66
2023/02/18 11:05:39;;;;;;;8.60;2.47;;;9.70;99.90;;;;;;5009440;28;20453;-67
2023/02/18 11:08:09;;;;;;;7.63;2.25;;;9.70;99.90;;;;;;5002978;28;20018;-66
2023/02/18 11:10:38;;;;;;;10.93;2.83;;;9.70;99.90;;;;;;5003051;28;20029;-66
2023/02/18 11:13:06;;;;;;;4.28;2.13;;;9.70;99.90;;;;;;5010614;28;20033;-66
2023/02/18 11:15:33;;;;;;;9.02;2.30;;;9.70;99.90;;;;;;5010562;28;20055;-66
2023/02/18 11:18:14;;;;;;;9.02;2.95;;;9.60;99.90;;;;;;5011448;28;20026;-67
2023/02/18 11:20:40;;;;;;;6.15;2.22;;;9.60;99.90;;;;;;5012138;28;20026;-66
2023/02/18 11:23:05;;;;;;;5.25;2.63;;;9.60;99.90;;;;;;5011663;28;20026;-67
2023/02/18 11:25:34;;;;;;;7.82;2.88;;;9.60;99.90;;;;;;5004758;28;20040;-67
2023/02/18 11:28:02;;;;;;;8.80;2.85;;;9.50;99.90;;;;;;5010632;28;20485;-66
2023/02/18 11:30:39;;;;;;;8.10;4.45;;;9.40;99.90;;;;;;5010981;28;20057;-67
2023/02/18 11:33:41;;;;;;;5.15;3.05;;;9.40;99.90;;;;;;5026115;28;20025;-66
2023/02/18 11:36:18;;;;;;;7.30;2.45;;;9.50;99.90;;;;;;5002540;28;20040;-66
2023/02/18 11:38:47;;;;;;;6.93;2.90;;;9.50;99.90;;;;;;5012829;28;20033;-66
2023/02/18 11:41:17;;;;;;;6.35;2.45;;;9.60;99.90;;;;;;5009508;28;20080;-66
2023/02/18 11:43:48;;;;;;;11.05;2.50;;;9.50;99.90;;;;;;5012116;28;20037;-66
2023/02/18 11:46:21;;;;;;;3.70;2.55;;;9.60;99.90;;;;;;5008316;28;20018;-67
2023/02/18 11:48:47;;;;;;;7.22;2.85;;;9.70;99.90;;;;;;5003933;28;20451;-66
2023/02/18 11:51:20;;;;;;;8.05;2.08;;;9.60;99.90;;;;;;5003382;28;20041;-66
2023/02/18 11:54:00;;;;;;;7.88;3.05;;;9.60;99.90;;;;;;5020238;28;20033;-67
2023/02/18 11:56:29;;;;;;;3.20;1.95;;;9.60;99.90;;;;;;5009654;28;20155;-66
2023/02/18 11:58:56;;;;;;;8.05;2.30;;;9.70;99.90;;;;;;5001802;28;20970;-67
2023/02/18 12:01:46;;;;;;;4.68;1.63;;;9.60;99.90;;;;;;5006510;28;20034;-66
2023/02/18 12:04:18;;;;;;;3.90;1.90;;;9.50;99.90;;;;;;4995712;28;20497;-66
2023/02/18 12:07:00;;;;;;;8.20;2.38;;;9.40;99.90;;;;;;4987820;28;20077;-67
2023/02/18 12:09:46;;;;;;;16.73;5.97;;;9.40;99.90;;;;;;5026501;28;20044;-65
2023/02/18 12:12:37;;;;;;;30.40;11.35;;;9.40;99.90;;;;;;5000309;28;20026;-66
2023/02/18 12:15:03;;;;;;;10.02;5.25;;;9.40;99.90;;;;;;5006691;28;20535;-66
2023/02/18 12:17:51;;;;;;;5.82;3.30;;;9.30;99.90;;;;;;5006582;28;20053;-67
2023/02/18 12:20:29;;;;;;;12.20;5.63;;;9.40;99.90;;;;;;5006964;28;20460;-66
2023/02/18 12:23:18;;;;;;;23.48;9.48;;;9.30;99.90;;;;;;5003150;28;20113;-66
2023/02/18 12:25:51;;;;;;;52.63;21.80;;;9.30;99.90;;;;;;5008133;28;20095;-66
2023/02/18 12:28:44;;;;;;;25.35;11.35;;;9.30;99.90;;;;;;4990759;28;20025;-66
2023/02/18 12:31:29;;;;;;;30.63;17.13;;;9.30;99.90;;;;;;5016014;28;20073;-67
2023/02/18 12:33:58;;;;;;;27.60;15.95;;;9.30;99.90;;;;;;4986204;28;20111;-67
2023/02/18 12:36:41;;;;;;;8.93;6.18;;;9.40;99.90;;;;;;5010452;28;20033;-66
2023/02/18 12:39:16;;;;;;;14.13;7.33;;;9.40;99.90;;;;;;5024104;28;20551;-66
2023/02/18 12:41:56;;;;;;;32.00;15.75;;;9.40;99.90;;;;;;5014173;28;20080;-67
2023/02/18 12:44:35;;;;;;;12.07;6.25;;;9.30;99.90;;;;;;4986681;28;20038;-67
2023/02/18 12:47:01;;;;;;;6.72;4.25;;;9.30;99.90;;;;;;4978721;28;20034;-67
2023/02/18 12:50:10;;;;;;;8.63;5.25;;;9.30;99.90;;;;;;5010032;28;20040;-67
2023/02/18 12:52:54;;;;;;;7.82;4.32;;;9.30;99.90;;;;;;4993221;28;20025;-67
2023/02/18 12:55:38;;;;;;;6.68;4.78;;;9.30;99.90;;;;;;5018985;28;20037;-66
2023/02/18 12:58:42;;;;;;;8.38;4.43;;;9.30;99.90;;;;;;5003141;28;20045;-67
2023/02/18 13:01:38;;;;;;;9.35;7.28;;;9.30;99.90;;;;;;4907795;29;20091;-67
2023/02/18 13:04:40;;;;;;;8.55;4.93;;;9.40;99.90;;;;;;5003958;28;20497;-66